sensor_id;sensor_type;location;lat;lon;timestamp;P1;durP1;ratioP1;P2;durP2;ratioP2
64615;SDS011;51027;42.162;24.754;2022-11-20T00:01:04;39.25;;;19.58;;
64615;SDS011;51027;42.162;24.754;2022-11-20T00:03:51;34.67;;;19.45;;
64615;SDS011;51027;42.162;24.754;2022-11-20T00:07:05;37.17;;;19.60;;
64615;SDS011;51027;42.162;24.754;2022-11-20T00:09:48;42.50;;;20.95;;
64615;SDS011;51027;42.162;24.754;2022-11-20T00:12:16;36.72;;;19.67;;
64615;SDS011;51027;42.162;24.754;2022-11-20T00:14:54;39.88;;;20.00;;
64615;SDS011;51027;42.162;24.754;2022-11-20T00:18:01;36.17;;;20.63;;
64615;SDS011;51027;42.162;24.754;2022-11-20T00:20:32;35.10;;;18.42;;
64615;SDS011;51027;42.162;24.754;2022-11-20T00:23:10;35.95;;;19.55;;
64615;SDS011;51027;42.162;24.754;2022-11-20T00:25:38;39.78;;;19.73;;
64615;SDS011;51027;42.162;24.754;2022-11-20T00:30:51;37.35;;;19.90;;
64615;SDS011;51027;42.162;24.754;2022-11-20T00:33:36;36.55;;;19.58;;
64615;SDS011;51027;42.162;24.754;2022-11-20T00:36:03;31.80;;;17.42;;
64615;SDS011;51027;42.162;24.754;2022-11-20T00:38:37;38.70;;;19.52;;
64615;SDS011;51027;42.162;24.754;2022-11-20T00:41:05;38.53;;;19.02;;
64615;SDS011;51027;42.162;24.754;2022-11-20T00:43:32;35.95;;;19.50;;
64615;SDS011;51027;42.162;24.754;2022-11-20T00:46:02;33.83;;;19.00;;
64615;SDS011;51027;42.162;24.754;2022-11-20T00:48:29;34.78;;;18.02;;
64615;SDS011;51027;42.162;24.754;2022-11-20T00:50:56;36.60;;;19.75;;
64615;SDS011;51027;42.162;24.754;2022-11-20T00:53:28;36.75;;;19.23;;
64615;SDS011;51027;42.162;24.754;2022-11-20T00:55:57;36.05;;;19.15;;
64615;SDS011;51027;42.162;24.754;2022-11-20T00:58:27;35.03;;;20.27;;
64615;SDS011;51027;42.162;24.754;2022-11-20T01:01:04;36.17;;;18.88;;
64615;SDS011;51027;42.162;24.754;2022-11-20T01:03:50;37.35;;;20.83;;
64615;SDS011;51027;42.162;24.754;2022-11-20T01:06:19;36.17;;;19.50;;
64615;SDS011;51027;42.162;24.754;2022-11-20T01:08:59;34.17;;;19.15;;
64615;SDS011;51027;42.162;24.754;2022-11-20T01:11:29;39.08;;;20.35;;
64615;SDS011;51027;42.162;24.754;2022-11-20T01:14:00;37.05;;;19.95;;
64615;SDS011;51027;42.162;24.754;2022-11-20T01:16:37;40.00;;;20.88;;
64615;SDS011;51027;42.162;24.754;2022-11-20T01:19:05;34.70;;;19.15;;
64615;SDS011;51027;42.162;24.754;2022-11-20T01:21:36;34.10;;;19.60;;
64615;SDS011;51027;42.162;24.754;2022-11-20T01:24:03;35.78;;;19.17;;
64615;SDS011;51027;42.162;24.754;2022-11-20T01:26:41;36.17;;;19.67;;
64615;SDS011;51027;42.162;24.754;2022-11-20T01:29:18;38.42;;;20.15;;
64615;SDS011;51027;42.162;24.754;2022-11-20T01:32:09;33.95;;;18.73;;
64615;SDS011;51027;42.162;24.754;2022-11-20T01:34:34;33.33;;;18.23;;
64615;SDS011;51027;42.162;24.754;2022-11-20T01:37:39;35.90;;;17.55;;
64615;SDS011;51027;42.162;24.754;2022-11-20T01:40:28;32.95;;;16.63;;
64615;SDS011;51027;42.162;24.754;2022-11-20T01:49:02;37.60;;;17.63;;
64615;SDS011;51027;42.162;24.754;2022-11-20T01:51:58;34.63;;;16.95;;
64615;SDS011;51027;42.162;24.754;2022-11-20T01:54:38;33.03;;;18.17;;
64615;SDS011;51027;42.162;24.754;2022-11-20T01:57:13;33.75;;;18.55;;
64615;SDS011;51027;42.162;24.754;2022-11-20T01:59:43;34.25;;;17.90;;
64615;SDS011;51027;42.162;24.754;2022-11-20T02:02:13;30.70;;;17.17;;
64615;SDS011;51027;42.162;24.754;2022-11-20T02:04:42;40.90;;;19.65;;
64615;SDS011;51027;42.162;24.754;2022-11-20T02:07:34;35.08;;;17.73;;
64615;SDS011;51027;42.162;24.754;2022-11-20T02:10:00;31.75;;;16.58;;
64615;SDS011;51027;42.162;24.754;2022-11-20T02:12:34;33.35;;;16.73;;
64615;SDS011;51027;42.162;24.754;2022-11-20T02:17:46;34.97;;;18.15;;
64615;SDS011;51027;42.162;24.754;2022-11-20T02:20:39;35.28;;;17.95;;
64615;SDS011;51027;42.162;24.754;2022-11-20T02:26:16;36.58;;;18.02;;
64615;SDS011;51027;42.162;24.754;2022-11-20T02:28:48;33.42;;;17.70;;
64615;SDS011;51027;42.162;24.754;2022-11-20T02:31:14;34.55;;;17.20;;
64615;SDS011;51027;42.162;24.754;2022-11-20T02:33:44;36.97;;;17.35;;
64615;SDS011;51027;42.162;24.754;2022-11-20T02:36:11;35.72;;;18.35;;
64615;SDS011;51027;42.162;24.754;2022-11-20T02:38:43;36.83;;;19.27;;
64615;SDS011;51027;42.162;24.754;2022-11-20T02:41:15;36.95;;;19.55;;
64615;SDS011;51027;42.162;24.754;2022-11-20T02:43:54;36.00;;;17.85;;
64615;SDS011;51027;42.162;24.754;2022-11-20T02:46:20;31.80;;;17.63;;
64615;SDS011;51027;42.162;24.754;2022-11-20T02:48:49;34.40;;;16.73;;
64615;SDS011;51027;42.162;24.754;2022-11-20T02:51:15;28.92;;;15.63;;
64615;SDS011;51027;42.162;24.754;2022-11-20T02:53:44;32.15;;;16.48;;
64615;SDS011;51027;42.162;24.754;2022-11-20T02:56:12;34.88;;;16.10;;
64615;SDS011;51027;42.162;24.754;2022-11-20T02:58:39;29.70;;;15.88;;
64615;SDS011;51027;42.162;24.754;2022-11-20T03:01:13;32.60;;;15.90;;
64615;SDS011;51027;42.162;24.754;2022-11-20T03:03:42;31.33;;;16.50;;
64615;SDS011;51027;42.162;24.754;2022-11-20T03:06:30;32.55;;;16.17;;
64615;SDS011;51027;42.162;24.754;2022-11-20T03:09:05;30.42;;;16.17;;
64615;SDS011;51027;42.162;24.754;2022-11-20T03:11:52;28.67;;;15.00;;
64615;SDS011;51027;42.162;24.754;2022-11-20T03:14:18;32.10;;;15.77;;
64615;SDS011;51027;42.162;24.754;2022-11-20T03:16:44;30.90;;;15.45;;
64615;SDS011;51027;42.162;24.754;2022-11-20T03:22:49;28.83;;;14.23;;
64615;SDS011;51027;42.162;24.754;2022-11-20T03:28:17;29.70;;;14.43;;
64615;SDS011;51027;42.162;24.754;2022-11-20T03:47:21;24.15;;;11.77;;
64615;SDS011;51027;42.162;24.754;2022-11-20T03:50:14;25.60;;;10.50;;
64615;SDS011;51027;42.162;24.754;2022-11-20T03:52:42;24.85;;;10.85;;
64615;SDS011;51027;42.162;24.754;2022-11-20T03:55:16;21.42;;;9.65;;
64615;SDS011;51027;42.162;24.754;2022-11-20T03:57:54;23.50;;;9.83;;
64615;SDS011;51027;42.162;24.754;2022-11-20T04:00:33;22.38;;;8.90;;
64615;SDS011;51027;42.162;24.754;2022-11-20T04:03:17;21.05;;;8.02;;
64615;SDS011;51027;42.162;24.754;2022-11-20T04:05:43;20.95;;;8.63;;
64615;SDS011;51027;42.162;24.754;2022-11-20T04:08:15;24.65;;;9.05;;
64615;SDS011;51027;42.162;24.754;2022-11-20T04:14:14;20.30;;;8.02;;
64615;SDS011;51027;42.162;24.754;2022-11-20T04:17:16;21.98;;;8.45;;
64615;SDS011;51027;42.162;24.754;2022-11-20T04:19:55;20.20;;;7.65;;
64615;SDS011;51027;42.162;24.754;2022-11-20T04:26:29;21.23;;;7.05;;
64615;SDS011;51027;42.162;24.754;2022-11-20T04:29:01;20.77;;;7.93;;
64615;SDS011;51027;42.162;24.754;2022-11-20T04:31:31;20.05;;;6.90;;
64615;SDS011;51027;42.162;24.754;2022-11-20T04:34:35;17.70;;;6.53;;
64615;SDS011;51027;42.162;24.754;2022-11-20T04:37:07;16.55;;;6.57;;
64615;SDS011;51027;42.162;24.754;2022-11-20T04:39:52;18.10;;;6.22;;
64615;SDS011;51027;42.162;24.754;2022-11-20T04:42:23;18.65;;;6.78;;
64615;SDS011;51027;42.162;24.754;2022-11-20T04:44:56;17.83;;;5.97;;
64615;SDS011;51027;42.162;24.754;2022-11-20T04:47:45;16.63;;;5.85;;
64615;SDS011;51027;42.162;24.754;2022-11-20T04:50:14;17.52;;;6.20;;
64615;SDS011;51027;42.162;24.754;2022-11-20T04:53:00;17.83;;;5.32;;
64615;SDS011;51027;42.162;24.754;2022-11-20T04:55:26;15.90;;;5.75;;
64615;SDS011;51027;42.162;24.754;2022-11-20T05:04:23;14.27;;;4.63;;
64615;SDS011;51027;42.162;24.754;2022-11-20T05:07:01;13.23;;;4.47;;
64615;SDS011;51027;42.162;24.754;2022-11-20T05:09:59;18.02;;;5.40;;
64615;SDS011;51027;42.162;24.754;2022-11-20T05:12:24;12.55;;;4.15;;
64615;SDS011;51027;42.162;24.754;2022-11-20T05:14:50;12.77;;;4.75;;
64615;SDS011;51027;42.162;24.754;2022-11-20T05:17:16;13.93;;;4.30;;
64615;SDS011;51027;42.162;24.754;2022-11-20T05:19:42;13.90;;;4.50;;
64615;SDS011;51027;42.162;24.754;2022-11-20T05:25:17;13.15;;;4.38;;
64615;SDS011;51027;42.162;24.754;2022-11-20T05:27:43;16.27;;;5.57;;
64615;SDS011;51027;42.162;24.754;2022-11-20T05:30:09;17.08;;;5.20;;
64615;SDS011;51027;42.162;24.754;2022-11-20T05:32:35;15.43;;;4.78;;
64615;SDS011;51027;42.162;24.754;2022-11-20T05:38:54;16.58;;;4.50;;
64615;SDS011;51027;42.162;24.754;2022-11-20T05:44:35;11.93;;;4.22;;
64615;SDS011;51027;42.162;24.754;2022-11-20T05:50:30;13.40;;;4.68;;
64615;SDS011;51027;42.162;24.754;2022-11-20T05:53:02;12.93;;;4.32;;
64615;SDS011;51027;42.162;24.754;2022-11-20T05:55:33;13.98;;;4.10;;
64615;SDS011;51027;42.162;24.754;2022-11-20T05:58:25;16.40;;;5.82;;
64615;SDS011;51027;42.162;24.754;2022-11-20T06:03:46;15.35;;;4.82;;
64615;SDS011;51027;42.162;24.754;2022-11-20T06:19:17;16.98;;;6.22;;
64615;SDS011;51027;42.162;24.754;2022-11-20T06:25:28;17.00;;;7.13;;
64615;SDS011;51027;42.162;24.754;2022-11-20T06:28:14;19.17;;;6.05;;
64615;SDS011;51027;42.162;24.754;2022-11-20T06:37:49;21.83;;;7.82;;
64615;SDS011;51027;42.162;24.754;2022-11-20T06:40:14;20.25;;;7.78;;
64615;SDS011;51027;42.162;24.754;2022-11-20T06:42:40;23.40;;;7.85;;
64615;SDS011;51027;42.162;24.754;2022-11-20T06:45:05;21.73;;;7.57;;
64615;SDS011;51027;42.162;24.754;2022-11-20T06:47:31;18.20;;;6.35;;
64615;SDS011;51027;42.162;24.754;2022-11-20T06:49:56;18.85;;;6.78;;
64615;SDS011;51027;42.162;24.754;2022-11-20T06:52:22;18.25;;;6.95;;
64615;SDS011;51027;42.162;24.754;2022-11-20T06:54:47;20.15;;;7.15;;
64615;SDS011;51027;42.162;24.754;2022-11-20T06:57:12;20.85;;;6.90;;
64615;SDS011;51027;42.162;24.754;2022-11-20T06:59:38;18.48;;;6.78;;
64615;SDS011;51027;42.162;24.754;2022-11-20T07:02:03;19.30;;;7.07;;
64615;SDS011;51027;42.162;24.754;2022-11-20T07:04:28;19.67;;;6.38;;
64615;SDS011;51027;42.162;24.754;2022-11-20T07:06:54;21.38;;;8.05;;
64615;SDS011;51027;42.162;24.754;2022-11-20T07:09:19;18.40;;;7.30;;
64615;SDS011;51027;42.162;24.754;2022-11-20T07:11:44;18.13;;;7.38;;
64615;SDS011;51027;42.162;24.754;2022-11-20T07:14:10;16.52;;;6.82;;
64615;SDS011;51027;42.162;24.754;2022-11-20T07:16:35;17.02;;;6.10;;
64615;SDS011;51027;42.162;24.754;2022-11-20T07:19:01;18.67;;;5.72;;
64615;SDS011;51027;42.162;24.754;2022-11-20T07:21:26;16.58;;;6.22;;
64615;SDS011;51027;42.162;24.754;2022-11-20T07:23:52;14.07;;;5.40;;
64615;SDS011;51027;42.162;24.754;2022-11-20T07:26:17;18.27;;;6.13;;
64615;SDS011;51027;42.162;24.754;2022-11-20T07:28:46;17.70;;;6.32;;
64615;SDS011;51027;42.162;24.754;2022-11-20T07:31:11;14.82;;;5.22;;
64615;SDS011;51027;42.162;24.754;2022-11-20T07:33:46;21.80;;;5.75;;
64615;SDS011;51027;42.162;24.754;2022-11-20T07:37:00;12.75;;;4.97;;
64615;SDS011;51027;42.162;24.754;2022-11-20T07:39:07;13.63;;;5.15;;
64615;SDS011;51027;42.162;24.754;2022-11-20T07:41:48;16.17;;;6.03;;
64615;SDS011;51027;42.162;24.754;2022-11-20T07:44:28;19.38;;;6.35;;
64615;SDS011;51027;42.162;24.754;2022-11-20T07:46:57;15.10;;;5.50;;
64615;SDS011;51027;42.162;24.754;2022-11-20T07:50:05;20.80;;;8.32;;
64615;SDS011;51027;42.162;24.754;2022-11-20T07:52:51;15.93;;;5.70;;
64615;SDS011;51027;42.162;24.754;2022-11-20T07:55:46;14.88;;;5.50;;
64615;SDS011;51027;42.162;24.754;2022-11-20T07:58:31;16.40;;;5.60;;
64615;SDS011;51027;42.162;24.754;2022-11-20T08:01:08;15.70;;;5.25;;
64615;SDS011;51027;42.162;24.754;2022-11-20T08:03:43;16.05;;;5.95;;
64615;SDS011;51027;42.162;24.754;2022-11-20T08:06:14;17.50;;;5.85;;
64615;SDS011;51027;42.162;24.754;2022-11-20T08:08:45;18.73;;;6.55;;
64615;SDS011;51027;42.162;24.754;2022-11-20T08:11:11;18.50;;;6.60;;
64615;SDS011;51027;42.162;24.754;2022-11-20T08:13:58;14.65;;;5.80;;
64615;SDS011;51027;42.162;24.754;2022-11-20T08:16:43;19.90;;;7.50;;
64615;SDS011;51027;42.162;24.754;2022-11-20T08:19:16;17.25;;;6.93;;
64615;SDS011;51027;42.162;24.754;2022-11-20T08:21:47;20.90;;;6.68;;
64615;SDS011;51027;42.162;24.754;2022-11-20T08:24:21;18.27;;;6.72;;
64615;SDS011;51027;42.162;24.754;2022-11-20T08:26:47;20.10;;;7.00;;
64615;SDS011;51027;42.162;24.754;2022-11-20T08:29:19;21.23;;;9.98;;
64615;SDS011;51027;42.162;24.754;2022-11-20T08:31:44;18.92;;;9.05;;
64615;SDS011;51027;42.162;24.754;2022-11-20T08:34:17;22.10;;;10.38;;
64615;SDS011;51027;42.162;24.754;2022-11-20T08:36:49;24.25;;;11.18;;
64615;SDS011;51027;42.162;24.754;2022-11-20T08:39:15;25.13;;;11.48;;
64615;SDS011;51027;42.162;24.754;2022-11-20T08:42:13;20.92;;;8.93;;
64615;SDS011;51027;42.162;24.754;2022-11-20T08:44:41;18.08;;;8.30;;
64615;SDS011;51027;42.162;24.754;2022-11-20T08:47:14;20.35;;;8.30;;
64615;SDS011;51027;42.162;24.754;2022-11-20T08:49:43;17.95;;;8.55;;
64615;SDS011;51027;42.162;24.754;2022-11-20T08:52:08;21.08;;;9.07;;
64615;SDS011;51027;42.162;24.754;2022-11-20T08:54:34;16.83;;;6.15;;
64615;SDS011;51027;42.162;24.754;2022-11-20T08:57:00;16.17;;;5.35;;
64615;SDS011;51027;42.162;24.754;2022-11-20T08:59:29;14.25;;;5.35;;
64615;SDS011;51027;42.162;24.754;2022-11-20T09:02:02;15.48;;;4.93;;
64615;SDS011;51027;42.162;24.754;2022-11-20T09:04:27;16.50;;;5.18;;
64615;SDS011;51027;42.162;24.754;2022-11-20T09:06:56;14.85;;;5.50;;
64615;SDS011;51027;42.162;24.754;2022-11-20T09:09:28;17.08;;;5.63;;
64615;SDS011;51027;42.162;24.754;2022-11-20T09:11:54;15.38;;;4.82;;
64615;SDS011;51027;42.162;24.754;2022-11-20T09:14:22;11.95;;;4.00;;
64615;SDS011;51027;42.162;24.754;2022-11-20T09:16:53;15.73;;;4.43;;
64615;SDS011;51027;42.162;24.754;2022-11-20T09:19:25;10.05;;;3.88;;
64615;SDS011;51027;42.162;24.754;2022-11-20T09:21:51;11.45;;;4.15;;
64615;SDS011;51027;42.162;24.754;2022-11-20T09:24:17;11.20;;;3.72;;
64615;SDS011;51027;42.162;24.754;2022-11-20T09:26:44;12.52;;;3.85;;
64615;SDS011;51027;42.162;24.754;2022-11-20T09:29:10;10.52;;;3.78;;
64615;SDS011;51027;42.162;24.754;2022-11-20T09:31:35;10.63;;;3.83;;
64615;SDS011;51027;42.162;24.754;2022-11-20T09:34:01;13.30;;;4.18;;
64615;SDS011;51027;42.162;24.754;2022-11-20T09:36:27;13.30;;;3.95;;
64615;SDS011;51027;42.162;24.754;2022-11-20T09:38:53;12.18;;;4.10;;
64615;SDS011;51027;42.162;24.754;2022-11-20T09:41:26;13.98;;;4.25;;
64615;SDS011;51027;42.162;24.754;2022-11-20T09:43:57;9.35;;;3.70;;
64615;SDS011;51027;42.162;24.754;2022-11-20T09:46:58;16.25;;;4.93;;
64615;SDS011;51027;42.162;24.754;2022-11-20T09:52:41;14.25;;;4.38;;
64615;SDS011;51027;42.162;24.754;2022-11-20T09:55:10;10.30;;;3.83;;
64615;SDS011;51027;42.162;24.754;2022-11-20T09:57:38;15.13;;;4.20;;
64615;SDS011;51027;42.162;24.754;2022-11-20T10:00:11;10.55;;;3.88;;
64615;SDS011;51027;42.162;24.754;2022-11-20T10:02:46;12.10;;;3.80;;
64615;SDS011;51027;42.162;24.754;2022-11-20T10:05:47;12.38;;;3.83;;
64615;SDS011;51027;42.162;24.754;2022-11-20T10:11:00;13.00;;;3.55;;
64615;SDS011;51027;42.162;24.754;2022-11-20T10:13:40;13.55;;;4.10;;
64615;SDS011;51027;42.162;24.754;2022-11-20T10:24:52;15.30;;;4.32;;
64615;SDS011;51027;42.162;24.754;2022-11-20T10:27:33;15.35;;;4.45;;
64615;SDS011;51027;42.162;24.754;2022-11-20T10:30:19;15.57;;;4.97;;
64615;SDS011;51027;42.162;24.754;2022-11-20T10:32:47;15.18;;;4.90;;
64615;SDS011;51027;42.162;24.754;2022-11-20T10:35:25;12.80;;;4.50;;
64615;SDS011;51027;42.162;24.754;2022-11-20T10:38:01;12.85;;;4.25;;
64615;SDS011;51027;42.162;24.754;2022-11-20T10:40:32;14.40;;;4.85;;
64615;SDS011;51027;42.162;24.754;2022-11-20T10:43:08;15.48;;;3.92;;
64615;SDS011;51027;42.162;24.754;2022-11-20T10:48:23;11.35;;;3.97;;
64615;SDS011;51027;42.162;24.754;2022-11-20T11:01:26;15.88;;;4.90;;
64615;SDS011;51027;42.162;24.754;2022-11-20T11:03:52;14.68;;;5.10;;
64615;SDS011;51027;42.162;24.754;2022-11-20T11:06:32;12.65;;;4.78;;
64615;SDS011;51027;42.162;24.754;2022-11-20T11:09:03;15.32;;;4.63;;
64615;SDS011;51027;42.162;24.754;2022-11-20T11:11:35;16.77;;;4.82;;
64615;SDS011;51027;42.162;24.754;2022-11-20T11:14:06;20.02;;;5.63;;
64615;SDS011;51027;42.162;24.754;2022-11-20T11:16:33;15.77;;;5.75;;
64615;SDS011;51027;42.162;24.754;2022-11-20T11:19:05;17.73;;;5.03;;
64615;SDS011;51027;42.162;24.754;2022-11-20T11:24:14;11.75;;;4.03;;
64615;SDS011;51027;42.162;24.754;2022-11-20T11:26:58;14.85;;;5.00;;
64615;SDS011;51027;42.162;24.754;2022-11-20T11:29:29;13.50;;;3.88;;
64615;SDS011;51027;42.162;24.754;2022-11-20T11:34:39;14.57;;;4.13;;
64615;SDS011;51027;42.162;24.754;2022-11-20T11:37:04;12.65;;;4.32;;
64615;SDS011;51027;42.162;24.754;2022-11-20T11:39:42;10.70;;;3.58;;
64615;SDS011;51027;42.162;24.754;2022-11-20T11:42:11;11.65;;;4.10;;
64615;SDS011;51027;42.162;24.754;2022-11-20T11:44:43;14.20;;;4.63;;
64615;SDS011;51027;42.162;24.754;2022-11-20T11:47:32;14.02;;;4.30;;
64615;SDS011;51027;42.162;24.754;2022-11-20T11:52:27;17.95;;;5.53;;
64615;SDS011;51027;42.162;24.754;2022-11-20T11:54:55;14.30;;;4.53;;
64615;SDS011;51027;42.162;24.754;2022-11-20T12:00:09;16.60;;;5.32;;
64615;SDS011;51027;42.162;24.754;2022-11-20T12:02:42;15.57;;;4.38;;
64615;SDS011;51027;42.162;24.754;2022-11-20T12:05:28;20.02;;;5.53;;
64615;SDS011;51027;42.162;24.754;2022-11-20T12:16:29;19.83;;;5.90;;
64615;SDS011;51027;42.162;24.754;2022-11-20T12:18:57;17.52;;;6.25;;
64615;SDS011;51027;42.162;24.754;2022-11-20T12:32:17;20.00;;;7.65;;
64615;SDS011;51027;42.162;24.754;2022-11-20T12:43:24;35.97;;;13.50;;
64615;SDS011;51027;42.162;24.754;2022-11-20T12:46:22;29.58;;;10.57;;
64615;SDS011;51027;42.162;24.754;2022-11-20T12:56:55;25.15;;;11.73;;
64615;SDS011;51027;42.162;24.754;2022-11-20T13:02:18;31.27;;;11.07;;
64615;SDS011;51027;42.162;24.754;2022-11-20T13:07:43;25.75;;;10.13;;
64615;SDS011;51027;42.162;24.754;2022-11-20T13:13:07;18.20;;;5.38;;
64615;SDS011;51027;42.162;24.754;2022-11-20T13:15:38;15.45;;;4.03;;
64615;SDS011;51027;42.162;24.754;2022-11-20T13:18:20;19.40;;;5.82;;
64615;SDS011;51027;42.162;24.754;2022-11-20T13:20:46;19.35;;;5.80;;
64615;SDS011;51027;42.162;24.754;2022-11-20T13:23:24;18.38;;;5.38;;
64615;SDS011;51027;42.162;24.754;2022-11-20T13:25:50;21.35;;;5.45;;
64615;SDS011;51027;42.162;24.754;2022-11-20T13:30:50;17.08;;;4.40;;
64615;SDS011;51027;42.162;24.754;2022-11-20T13:33:32;18.05;;;4.53;;
64615;SDS011;51027;42.162;24.754;2022-11-20T13:36:04;17.63;;;4.72;;
64615;SDS011;51027;42.162;24.754;2022-11-20T13:38:46;13.50;;;3.65;;
64615;SDS011;51027;42.162;24.754;2022-11-20T13:41:23;16.25;;;3.85;;
64615;SDS011;51027;42.162;24.754;2022-11-20T13:43:53;14.55;;;3.90;;
64615;SDS011;51027;42.162;24.754;2022-11-20T13:46:34;11.57;;;2.92;;
64615;SDS011;51027;42.162;24.754;2022-11-20T13:49:05;15.95;;;3.28;;
64615;SDS011;51027;42.162;24.754;2022-11-20T13:56:59;11.77;;;2.70;;
64615;SDS011;51027;42.162;24.754;2022-11-20T14:02:26;10.52;;;2.60;;
64615;SDS011;51027;42.162;24.754;2022-11-20T14:04:56;11.70;;;2.50;;
64615;SDS011;51027;42.162;24.754;2022-11-20T14:07:31;10.05;;;2.20;;
64615;SDS011;51027;42.162;24.754;2022-11-20T14:10:04;8.52;;;2.30;;
64615;SDS011;51027;42.162;24.754;2022-11-20T14:12:31;13.70;;;3.97;;
64615;SDS011;51027;42.162;24.754;2022-11-20T14:14:58;9.13;;;2.22;;
64615;SDS011;51027;42.162;24.754;2022-11-20T14:19:53;11.20;;;3.10;;
64615;SDS011;51027;42.162;24.754;2022-11-20T14:22:24;7.00;;;2.38;;
64615;SDS011;51027;42.162;24.754;2022-11-20T14:27:37;9.07;;;2.95;;
64615;SDS011;51027;42.162;24.754;2022-11-20T14:30:05;9.73;;;3.25;;
64615;SDS011;51027;42.162;24.754;2022-11-20T14:32:37;6.78;;;2.40;;
64615;SDS011;51027;42.162;24.754;2022-11-20T14:35:06;6.65;;;2.50;;
64615;SDS011;51027;42.162;24.754;2022-11-20T14:37:36;5.50;;;1.77;;
64615;SDS011;51027;42.162;24.754;2022-11-20T14:40:05;7.85;;;2.00;;
64615;SDS011;51027;42.162;24.754;2022-11-20T14:42:47;7.25;;;1.88;;
64615;SDS011;51027;42.162;24.754;2022-11-20T14:45:12;4.82;;;1.42;;
64615;SDS011;51027;42.162;24.754;2022-11-20T14:47:38;5.63;;;1.65;;
64615;SDS011;51027;42.162;24.754;2022-11-20T14:50:07;3.25;;;1.60;;
64615;SDS011;51027;42.162;24.754;2022-11-20T14:52:51;3.85;;;1.67;;
64615;SDS011;51027;42.162;24.754;2022-11-20T14:55:37;4.43;;;1.75;;
64615;SDS011;51027;42.162;24.754;2022-11-20T14:58:19;6.00;;;2.28;;
64615;SDS011;51027;42.162;24.754;2022-11-20T15:01:03;8.05;;;2.70;;
64615;SDS011;51027;42.162;24.754;2022-11-20T15:03:34;7.55;;;2.67;;
64615;SDS011;51027;42.162;24.754;2022-11-20T15:06:05;10.20;;;2.90;;
64615;SDS011;51027;42.162;24.754;2022-11-20T15:08:33;7.00;;;2.60;;
64615;SDS011;51027;42.162;24.754;2022-11-20T15:10:59;9.73;;;2.30;;
64615;SDS011;51027;42.162;24.754;2022-11-20T15:15:58;9.60;;;2.45;;
64615;SDS011;51027;42.162;24.754;2022-11-20T15:18:32;8.70;;;2.90;;
64615;SDS011;51027;42.162;24.754;2022-11-20T15:21:03;7.47;;;2.40;;
64615;SDS011;51027;42.162;24.754;2022-11-20T15:23:35;15.25;;;4.20;;
64615;SDS011;51027;42.162;24.754;2022-11-20T15:26:00;11.70;;;3.08;;
64615;SDS011;51027;42.162;24.754;2022-11-20T15:28:33;11.60;;;3.53;;
64615;SDS011;51027;42.162;24.754;2022-11-20T15:31:00;12.85;;;3.72;;
64615;SDS011;51027;42.162;24.754;2022-11-20T15:33:27;13.05;;;4.10;;
64615;SDS011;51027;42.162;24.754;2022-11-20T15:35:52;13.00;;;3.72;;
64615;SDS011;51027;42.162;24.754;2022-11-20T15:38:18;8.63;;;3.25;;
64615;SDS011;51027;42.162;24.754;2022-11-20T15:40:43;8.95;;;2.75;;
64615;SDS011;51027;42.162;24.754;2022-11-20T15:43:08;14.00;;;3.20;;
64615;SDS011;51027;42.162;24.754;2022-11-20T15:45:47;9.52;;;2.67;;
64615;SDS011;51027;42.162;24.754;2022-11-20T15:48:17;10.48;;;2.88;;
64615;SDS011;51027;42.162;24.754;2022-11-20T15:53:22;12.40;;;3.80;;
64615;SDS011;51027;42.162;24.754;2022-11-20T15:55:48;11.07;;;3.72;;
64615;SDS011;51027;42.162;24.754;2022-11-20T15:58:13;9.10;;;3.10;;
64615;SDS011;51027;42.162;24.754;2022-11-20T16:00:39;11.23;;;3.35;;
64615;SDS011;51027;42.162;24.754;2022-11-20T16:03:04;17.08;;;5.18;;
64615;SDS011;51027;42.162;24.754;2022-11-20T16:05:30;15.57;;;4.82;;
64615;SDS011;51027;42.162;24.754;2022-11-20T16:07:56;14.68;;;5.00;;
64615;SDS011;51027;42.162;24.754;2022-11-20T16:10:22;13.38;;;4.88;;
64615;SDS011;51027;42.162;24.754;2022-11-20T16:12:47;15.60;;;5.93;;
64615;SDS011;51027;42.162;24.754;2022-11-20T16:15:32;13.88;;;4.38;;
64615;SDS011;51027;42.162;24.754;2022-11-20T16:18:16;11.20;;;3.90;;
64615;SDS011;51027;42.162;24.754;2022-11-20T16:20:44;10.30;;;3.33;;
64615;SDS011;51027;42.162;24.754;2022-11-20T16:23:10;14.32;;;4.05;;
64615;SDS011;51027;42.162;24.754;2022-11-20T16:25:36;15.95;;;4.32;;
64615;SDS011;51027;42.162;24.754;2022-11-20T16:28:02;15.95;;;4.95;;
64615;SDS011;51027;42.162;24.754;2022-11-20T16:30:28;15.70;;;4.80;;
64615;SDS011;51027;42.162;24.754;2022-11-20T16:32:54;13.60;;;4.50;;
64615;SDS011;51027;42.162;24.754;2022-11-20T16:35:19;16.95;;;4.82;;
64615;SDS011;51027;42.162;24.754;2022-11-20T16:37:44;14.07;;;4.63;;
64615;SDS011;51027;42.162;24.754;2022-11-20T16:40:10;13.35;;;4.55;;
64615;SDS011;51027;42.162;24.754;2022-11-20T16:42:36;14.93;;;4.22;;
64615;SDS011;51027;42.162;24.754;2022-11-20T16:45:02;12.73;;;4.20;;
64615;SDS011;51027;42.162;24.754;2022-11-20T16:47:32;18.92;;;5.00;;
64615;SDS011;51027;42.162;24.754;2022-11-20T16:52:23;14.68;;;4.15;;
64615;SDS011;51027;42.162;24.754;2022-11-20T16:54:49;13.18;;;3.95;;
64615;SDS011;51027;42.162;24.754;2022-11-20T16:57:14;14.55;;;4.05;;
64615;SDS011;51027;42.162;24.754;2022-11-20T16:59:40;20.98;;;4.70;;
64615;SDS011;51027;42.162;24.754;2022-11-20T17:02:05;12.90;;;3.88;;
64615;SDS011;51027;42.162;24.754;2022-11-20T17:04:30;15.63;;;4.07;;
64615;SDS011;51027;42.162;24.754;2022-11-20T17:06:56;13.85;;;4.20;;
64615;SDS011;51027;42.162;24.754;2022-11-20T17:09:21;13.80;;;4.20;;
64615;SDS011;51027;42.162;24.754;2022-11-20T17:11:47;14.23;;;4.50;;
64615;SDS011;51027;42.162;24.754;2022-11-20T17:14:13;16.67;;;4.90;;
64615;SDS011;51027;42.162;24.754;2022-11-20T17:16:39;17.98;;;5.05;;
64615;SDS011;51027;42.162;24.754;2022-11-20T17:19:04;14.02;;;4.97;;
64615;SDS011;51027;42.162;24.754;2022-11-20T17:21:31;14.25;;;4.53;;
64615;SDS011;51027;42.162;24.754;2022-11-20T17:24:00;20.73;;;5.28;;
64615;SDS011;51027;42.162;24.754;2022-11-20T17:26:27;15.07;;;4.45;;
64615;SDS011;51027;42.162;24.754;2022-11-20T17:28:55;16.02;;;5.03;;
64615;SDS011;51027;42.162;24.754;2022-11-20T17:31:23;17.30;;;4.50;;
64615;SDS011;51027;42.162;24.754;2022-11-20T17:33:48;13.82;;;3.90;;
64615;SDS011;51027;42.162;24.754;2022-11-20T17:36:15;19.08;;;5.15;;
64615;SDS011;51027;42.162;24.754;2022-11-20T17:38:41;15.60;;;4.15;;
64615;SDS011;51027;42.162;24.754;2022-11-20T17:41:08;14.93;;;4.15;;
64615;SDS011;51027;42.162;24.754;2022-11-20T17:43:34;14.38;;;3.88;;
64615;SDS011;51027;42.162;24.754;2022-11-20T17:46:06;18.77;;;5.32;;
64615;SDS011;51027;42.162;24.754;2022-11-20T17:48:33;16.65;;;4.57;;
64615;SDS011;51027;42.162;24.754;2022-11-20T17:51:02;16.88;;;4.50;;
64615;SDS011;51027;42.162;24.754;2022-11-20T17:53:31;12.25;;;3.50;;
64615;SDS011;51027;42.162;24.754;2022-11-20T17:55:58;15.30;;;4.10;;
64615;SDS011;51027;42.162;24.754;2022-11-20T17:58:42;10.55;;;3.40;;
64615;SDS011;51027;42.162;24.754;2022-11-20T18:01:08;14.38;;;3.65;;
64615;SDS011;51027;42.162;24.754;2022-11-20T18:03:34;11.93;;;4.20;;
64615;SDS011;51027;42.162;24.754;2022-11-20T18:06:10;13.82;;;4.10;;